sensor_id;sensor_type;location;lat;lon;timestamp;pressure;altitude;pressure_sealevel;temperature;humidity
7297;BME280;40758;54.038;11.684;2023-07-29T00:01:17;100549.72;;;12.07;100.00
7297;BME280;40758;54.038;11.684;2023-07-29T00:03:44;100539.66;;;12.19;100.00
7297;BME280;40758;54.038;11.684;2023-07-29T00:06:11;100532.19;;;12.26;100.00
7297;BME280;40758;54.038;11.684;2023-07-29T00:08:38;100532.41;;;12.60;100.00
7297;BME280;40758;54.038;11.684;2023-07-29T00:11:05;100537.13;;;12.64;100.00
7297;BME280;40758;54.038;11.684;2023-07-29T00:13:32;100534.91;;;12.49;100.00
7297;BME280;40758;54.038;11.684;2023-07-29T00:15:59;100546.38;;;12.40;100.00
7297;BME280;40758;54.038;11.684;2023-07-29T00:18:26;100541.78;;;12.29;100.00
7297;BME280;40758;54.038;11.684;2023-07-29T00:20:53;100554.69;;;12.21;100.00
7297;BME280;40758;54.038;11.684;2023-07-29T00:23:20;100548.53;;;12.14;100.00
7297;BME280;40758;54.038;11.684;2023-07-29T00:25:48;100542.72;;;12.11;100.00
7297;BME280;40758;54.038;11.684;2023-07-29T00:28:16;100541.06;;;12.10;100.00
7297;BME280;40758;54.038;11.684;2023-07-29T00:30:46;100541.78;;;12.05;100.00
7297;BME280;40758;54.038;11.684;2023-07-29T00:33:13;100541.19;;;12.03;100.00
7297;BME280;40758;54.038;11.684;2023-07-29T00:35:40;100534.81;;;12.09;100.00
7297;BME280;40758;54.038;11.684;2023-07-29T00:38:06;100530.53;;;12.37;100.00
7297;BME280;40758;54.038;11.684;2023-07-29T00:40:35;100520.56;;;12.54;100.00
7297;BME280;40758;54.038;11.684;2023-07-29T00:43:02;100529.31;;;12.56;100.00
7297;BME280;40758;54.038;11.684;2023-07-29T00:45:30;100514.88;;;12.56;100.00
7297;BME280;40758;54.038;11.684;2023-07-29T00:47:59;100531.47;;;12.42;100.00
7297;BME280;40758;54.038;11.684;2023-07-29T00:50:27;100534.78;;;12.33;100.00
7297;BME280;40758;54.038;11.684;2023-07-29T00:52:55;100525.34;;;12.23;100.00
7297;BME280;40758;54.038;11.684;2023-07-29T00:55:24;100525.44;;;12.17;100.00
7297;BME280;40758;54.038;11.684;2023-07-29T00:57:51;100525.94;;;12.14;100.00
7297;BME280;40758;54.038;11.684;2023-07-29T01:00:21;100525.94;;;12.14;100.00
7297;BME280;40758;54.038;11.684;2023-07-29T01:02:48;100529.72;;;12.13;100.00
7297;BME280;40758;54.038;11.684;2023-07-29T01:05:16;100513.16;;;12.14;100.00
7297;BME280;40758;54.038;11.684;2023-07-29T01:07:51;100511.94;;;12.34;100.00
7297;BME280;40758;54.038;11.684;2023-07-29T01:13:18;100512.06;;;12.27;100.00
7297;BME280;40758;54.038;11.684;2023-07-29T01:15:58;100512.19;;;12.20;100.00
7297;BME280;40758;54.038;11.684;2023-07-29T01:18:32;100505.22;;;12.13;100.00
7297;BME280;40758;54.038;11.684;2023-07-29T01:21:03;100499.91;;;12.06;100.00
7297;BME280;40758;54.038;11.684;2023-07-29T01:23:32;100497.88;;;12.02;100.00
7297;BME280;40758;54.038;11.684;2023-07-29T01:25:59;100498.09;;;12.00;100.00
7297;BME280;40758;54.038;11.684;2023-07-29T01:28:26;100502.72;;;11.99;100.00
7297;BME280;40758;54.038;11.684;2023-07-29T01:31:19;100500.13;;;12.05;100.00
7297;BME280;40758;54.038;11.684;2023-07-29T01:33:57;100498.00;;;11.95;100.00
7297;BME280;40758;54.038;11.684;2023-07-29T01:36:28;100490.44;;;11.85;100.00
7297;BME280;40758;54.038;11.684;2023-07-29T01:38:57;100496.31;;;11.82;100.00
7297;BME280;40758;54.038;11.684;2023-07-29T01:41:24;100500.13;;;11.81;100.00
7297;BME280;40758;54.038;11.684;2023-07-29T01:43:52;100504.38;;;11.77;100.00
7297;BME280;40758;54.038;11.684;2023-07-29T01:46:20;100499.84;;;11.71;100.00
7297;BME280;40758;54.038;11.684;2023-07-29T01:48:46;100511.09;;;11.75;100.00
7297;BME280;40758;54.038;11.684;2023-07-29T01:51:13;100505.16;;;11.66;100.00
7297;BME280;40758;54.038;11.684;2023-07-29T01:53:40;100496.91;;;11.72;100.00
7297;BME280;40758;54.038;11.684;2023-07-29T01:56:07;100495.97;;;11.79;100.00
7297;BME280;40758;54.038;11.684;2023-07-29T01:58:34;100506.13;;;11.71;100.00
7297;BME280;40758;54.038;11.684;2023-07-29T02:01:00;100506.69;;;11.62;100.00
7297;BME280;40758;54.038;11.684;2023-07-29T02:03:27;100500.19;;;11.63;100.00
7297;BME280;40758;54.038;11.684;2023-07-29T02:05:54;100497.81;;;11.55;100.00
7297;BME280;40758;54.038;11.684;2023-07-29T02:08:22;100495.94;;;11.55;100.00
7297;BME280;40758;54.038;11.684;2023-07-29T02:10:48;100505.59;;;11.51;100.00
7297;BME280;40758;54.038;11.684;2023-07-29T02:13:15;100501.81;;;11.52;100.00
7297;BME280;40758;54.038;11.684;2023-07-29T02:15:42;100493.53;;;11.47;100.00
7297;BME280;40758;54.038;11.684;2023-07-29T02:18:09;100495.41;;;11.46;100.00
7297;BME280;40758;54.038;11.684;2023-07-29T02:20:35;100495.31;;;11.53;100.00
7297;BME280;40758;54.038;11.684;2023-07-29T02:23:02;100488.13;;;11.70;100.00
7297;BME280;40758;54.038;11.684;2023-07-29T02:25:29;100493.47;;;11.77;100.00
7297;BME280;40758;54.038;11.684;2023-07-29T02:27:55;100486.22;;;11.71;100.00
7297;BME280;40758;54.038;11.684;2023-07-29T02:30:22;100493.69;;;11.64;100.00
7297;BME280;40758;54.038;11.684;2023-07-29T02:32:49;100503.84;;;11.57;100.00
7297;BME280;40758;54.038;11.684;2023-07-29T02:35:16;100499.91;;;11.53;100.00
7297;BME280;40758;54.038;11.684;2023-07-29T02:37:43;100495.69;;;11.57;100.00
7297;BME280;40758;54.038;11.684;2023-07-29T02:40:10;100487.41;;;11.63;100.00
7297;BME280;40758;54.038;11.684;2023-07-29T02:42:37;100499.84;;;11.71;100.00
7297;BME280;40758;54.038;11.684;2023-07-29T02:45:05;100491.59;;;11.78;100.00
7297;BME280;40758;54.038;11.684;2023-07-29T02:47:37;100491.25;;;11.86;100.00
7297;BME280;40758;54.038;11.684;2023-07-29T02:50:05;100486.19;;;12.01;100.00
7297;BME280;40758;54.038;11.684;2023-07-29T02:52:31;100491.59;;;12.24;100.00
7297;BME280;40758;54.038;11.684;2023-07-29T02:54:58;100489.19;;;12.40;100.00
7297;BME280;40758;54.038;11.684;2023-07-29T02:57:25;100482.56;;;12.47;100.00
7297;BME280;40758;54.038;11.684;2023-07-29T02:59:51;100469.50;;;12.61;100.00
7297;BME280;40758;54.038;11.684;2023-07-29T03:02:18;100478.81;;;12.77;100.00
7297;BME280;40758;54.038;11.684;2023-07-29T03:04:45;100481.69;;;12.70;100.00
7297;BME280;40758;54.038;11.684;2023-07-29T03:07:14;100478.72;;;12.72;100.00
7297;BME280;40758;54.038;11.684;2023-07-29T03:09:41;100482.16;;;12.67;100.00
7297;BME280;40758;54.038;11.684;2023-07-29T03:12:08;100481.47;;;12.60;100.00
7297;BME280;40758;54.038;11.684;2023-07-29T03:14:35;100490.00;;;12.52;100.00
7297;BME280;40758;54.038;11.684;2023-07-29T03:17:03;100482.09;;;12.50;100.00
7297;BME280;40758;54.038;11.684;2023-07-29T03:19:31;100483.94;;;12.62;100.00
7297;BME280;40758;54.038;11.684;2023-07-29T03:21:57;100470.34;;;12.62;100.00
7297;BME280;40758;54.038;11.684;2023-07-29T03:24:24;100466.00;;;12.49;100.00
7297;BME280;40758;54.038;11.684;2023-07-29T03:26:51;100478.66;;;12.43;100.00
7297;BME280;40758;54.038;11.684;2023-07-29T03:29:17;100464.84;;;12.33;100.00
7297;BME280;40758;54.038;11.684;2023-07-29T03:31:44;100462.69;;;12.47;100.00
7297;BME280;40758;54.038;11.684;2023-07-29T03:34:11;100461.94;;;12.51;100.00
7297;BME280;40758;54.038;11.684;2023-07-29T03:36:39;100452.94;;;12.51;100.00
7297;BME280;40758;54.038;11.684;2023-07-29T03:39:08;100456.94;;;12.72;100.00
7297;BME280;40758;54.038;11.684;2023-07-29T03:41:35;100459.59;;;12.84;100.00
7297;BME280;40758;54.038;11.684;2023-07-29T03:44:02;100448.44;;;12.85;100.00
7297;BME280;40758;54.038;11.684;2023-07-29T03:46:28;100448.59;;;13.07;100.00
7297;BME280;40758;54.038;11.684;2023-07-29T03:48:55;100439.78;;;13.17;100.00
7297;BME280;40758;54.038;11.684;2023-07-29T03:51:23;100438.22;;;13.21;100.00
7297;BME280;40758;54.038;11.684;2023-07-29T03:53:51;100442.22;;;13.30;100.00
7297;BME280;40758;54.038;11.684;2023-07-29T03:56:18;100442.41;;;13.40;100.00
7297;BME280;40758;54.038;11.684;2023-07-29T03:58:46;100441.88;;;13.43;100.00
7297;BME280;40758;54.038;11.684;2023-07-29T04:01:13;100451.41;;;13.41;100.00
7297;BME280;40758;54.038;11.684;2023-07-29T04:03:40;100444.63;;;13.43;100.00
7297;BME280;40758;54.038;11.684;2023-07-29T04:06:07;100448.50;;;13.47;100.00
7297;BME280;40758;54.038;11.684;2023-07-29T04:08:34;100449.59;;;13.63;100.00
7297;BME280;40758;54.038;11.684;2023-07-29T04:11:00;100436.00;;;13.68;100.00
7297;BME280;40758;54.038;11.684;2023-07-29T04:13:27;100445.44;;;13.77;100.00
7297;BME280;40758;54.038;11.684;2023-07-29T04:15:54;100448.50;;;13.81;100.00
7297;BME280;40758;54.038;11.684;2023-07-29T04:18:21;100438.72;;;13.85;100.00
7297;BME280;40758;54.038;11.684;2023-07-29T04:20:48;100430.94;;;13.94;100.00
7297;BME280;40758;54.038;11.684;2023-07-29T04:23:14;100438.69;;;14.02;100.00
7297;BME280;40758;54.038;11.684;2023-07-29T04:25:41;100441.50;;;14.07;100.00
7297;BME280;40758;54.038;11.684;2023-07-29T04:28:08;100447.56;;;14.09;100.00
7297;BME280;40758;54.038;11.684;2023-07-29T04:30:34;100442.41;;;14.13;100.00
7297;BME280;40758;54.038;11.684;2023-07-29T04:33:01;100443.81;;;14.15;100.00
7297;BME280;40758;54.038;11.684;2023-07-29T04:35:28;100452.31;;;14.19;100.00
7297;BME280;40758;54.038;11.684;2023-07-29T04:37:55;100464.66;;;14.21;100.00
7297;BME280;40758;54.038;11.684;2023-07-29T04:40:22;100462.75;;;14.22;100.00
7297;BME280;40758;54.038;11.684;2023-07-29T04:42:50;100472.59;;;14.23;100.00
7297;BME280;40758;54.038;11.684;2023-07-29T04:45:17;100475.31;;;14.23;100.00
7297;BME280;40758;54.038;11.684;2023-07-29T04:47:44;100474.78;;;14.26;100.00
7297;BME280;40758;54.038;11.684;2023-07-29T04:50:10;100470.06;;;14.38;100.00
7297;BME280;40758;54.038;11.684;2023-07-29T04:52:37;100465.84;;;14.47;100.00
7297;BME280;40758;54.038;11.684;2023-07-29T04:55:04;100469.53;;;14.58;100.00
7297;BME280;40758;54.038;11.684;2023-07-29T04:57:31;100470.59;;;14.79;100.00
7297;BME280;40758;54.038;11.684;2023-07-29T04:59:57;100460.84;;;14.88;100.00
7297;BME280;40758;54.038;11.684;2023-07-29T05:02:24;100458.28;;;15.03;100.00
7297;BME280;40758;54.038;11.684;2023-07-29T05:04:51;100446.63;;;15.13;100.00
7297;BME280;40758;54.038;11.684;2023-07-29T05:07:17;100455.97;;;15.17;100.00
7297;BME280;40758;54.038;11.684;2023-07-29T05:09:44;100448.84;;;15.16;100.00
7297;BME280;40758;54.038;11.684;2023-07-29T05:12:11;100449.34;;;15.13;100.00
7297;BME280;40758;54.038;11.684;2023-07-29T05:14:38;100446.97;;;15.22;100.00
7297;BME280;40758;54.038;11.684;2023-07-29T05:17:05;100445.94;;;15.28;100.00
7297;BME280;40758;54.038;11.684;2023-07-29T05:19:31;100431.59;;;15.42;100.00
7297;BME280;40758;54.038;11.684;2023-07-29T05:21:58;100436.34;;;15.57;100.00
7297;BME280;40758;54.038;11.684;2023-07-29T05:24:25;100440.19;;;15.56;100.00
7297;BME280;40758;54.038;11.684;2023-07-29T05:26:51;100421.56;;;15.58;100.00
7297;BME280;40758;54.038;11.684;2023-07-29T05:29:18;100429.22;;;15.56;100.00
7297;BME280;40758;54.038;11.684;2023-07-29T05:31:45;100430.03;;;15.57;100.00
7297;BME280;40758;54.038;11.684;2023-07-29T05:34:12;100427.59;;;15.55;100.00
7297;BME280;40758;54.038;11.684;2023-07-29T05:36:38;100422.09;;;15.55;100.00
7297;BME280;40758;54.038;11.684;2023-07-29T05:39:06;100419.88;;;15.52;100.00
7297;BME280;40758;54.038;11.684;2023-07-29T05:41:33;100427.59;;;15.55;100.00
7297;BME280;40758;54.038;11.684;2023-07-29T05:44:00;100427.59;;;15.55;100.00
7297;BME280;40758;54.038;11.684;2023-07-29T05:46:27;100419.38;;;15.55;100.00
7297;BME280;40758;54.038;11.684;2023-07-29T05:48:54;100431.41;;;15.59;100.00
7297;BME280;40758;54.038;11.684;2023-07-29T05:51:21;100422.84;;;15.78;100.00
7297;BME280;40758;54.038;11.684;2023-07-29T05:53:47;100400.78;;;15.94;100.00
7297;BME280;40758;54.038;11.684;2023-07-29T05:56:14;100398.88;;;16.00;100.00
7297;BME280;40758;54.038;11.684;2023-07-29T05:58:41;100403.25;;;15.96;100.00
7297;BME280;40758;54.038;11.684;2023-07-29T06:01:07;100401.56;;;15.90;100.00
7297;BME280;40758;54.038;11.684;2023-07-29T06:03:34;100402.13;;;15.92;100.00
7297;BME280;40758;54.038;11.684;2023-07-29T06:06:01;100410.34;;;15.92;100.00
7297;BME280;40758;54.038;11.684;2023-07-29T06:08:28;100410.88;;;15.89;100.00
7297;BME280;40758;54.038;11.684;2023-07-29T06:10:55;100406.00;;;15.96;100.00
7297;BME280;40758;54.038;11.684;2023-07-29T06:13:22;100402.19;;;16.02;100.00
7297;BME280;40758;54.038;11.684;2023-07-29T06:15:49;100400.34;;;16.13;100.00
7297;BME280;40758;54.038;11.684;2023-07-29T06:18:16;100400.13;;;16.25;100.00
7297;BME280;40758;54.038;11.684;2023-07-29T06:20:43;100397.69;;;16.38;100.00
7297;BME280;40758;54.038;11.684;2023-07-29T06:23:10;100401.03;;;16.56;100.00
7297;BME280;40758;54.038;11.684;2023-07-29T06:25:36;100388.75;;;16.68;100.00
7297;BME280;40758;54.038;11.684;2023-07-29T06:28:03;100395.13;;;16.89;100.00
7297;BME280;40758;54.038;11.684;2023-07-29T06:30:31;100398.16;;;16.88;100.00
7297;BME280;40758;54.038;11.684;2023-07-29T06:32:58;100392.66;;;16.83;100.00
7297;BME280;40758;54.038;11.684;2023-07-29T06:35:24;100394.00;;;16.75;100.00
7297;BME280;40758;54.038;11.684;2023-07-29T06:37:51;100392.66;;;16.78;100.00
7297;BME280;40758;54.038;11.684;2023-07-29T06:40:18;100391.00;;;16.92;100.00
7297;BME280;40758;54.038;11.684;2023-07-29T06:42:44;100388.31;;;17.12;100.00
7297;BME280;40758;54.038;11.684;2023-07-29T06:45:11;100389.97;;;17.23;100.00
7297;BME280;40758;54.038;11.684;2023-07-29T06:47:38;100383.91;;;17.26;100.00
7297;BME280;40758;54.038;11.684;2023-07-29T06:50:05;100382.00;;;17.47;100.00
7297;BME280;40758;54.038;11.684;2023-07-29T06:52:32;100385.28;;;17.54;100.00
7297;BME280;40758;54.038;11.684;2023-07-29T06:54:59;100381.16;;;17.77;100.00
7297;BME280;40758;54.038;11.684;2023-07-29T06:57:26;100376.69;;;17.97;100.00
7297;BME280;40758;54.038;11.684;2023-07-29T06:59:52;100381.31;;;18.17;100.00
7297;BME280;40758;54.038;11.684;2023-07-29T07:02:19;100378.81;;;18.25;100.00
7297;BME280;40758;54.038;11.684;2023-07-29T07:04:46;100389.56;;;18.22;100.00
7297;BME280;40758;54.038;11.684;2023-07-29T07:07:13;100390.38;;;18.22;100.00
7297;BME280;40758;54.038;11.684;2023-07-29T07:09:39;100389.25;;;18.28;100.00
7297;BME280;40758;54.038;11.684;2023-07-29T07:12:06;100393.38;;;18.26;100.00
7297;BME280;40758;54.038;11.684;2023-07-29T07:14:33;100387.31;;;18.34;100.00
7297;BME280;40758;54.038;11.684;2023-07-29T07:17:00;100395.03;;;18.27;100.00
7297;BME280;40758;54.038;11.684;2023-07-29T07:19:27;100394.78;;;18.18;100.00
7297;BME280;40758;54.038;11.684;2023-07-29T07:21:53;100386.53;;;18.13;100.00
7297;BME280;40758;54.038;11.684;2023-07-29T07:24:20;100387.63;;;18.17;100.00
7297;BME280;40758;54.038;11.684;2023-07-29T07:26:47;100392.31;;;18.12;100.00
7297;BME280;40758;54.038;11.684;2023-07-29T07:29:13;100377.25;;;18.04;100.00
7297;BME280;40758;54.038;11.684;2023-07-29T07:31:40;100382.75;;;18.09;100.00
7297;BME280;40758;54.038;11.684;2023-07-29T07:34:07;100387.03;;;18.30;100.00
7297;BME280;40758;54.038;11.684;2023-07-29T07:36:33;100377.63;;;18.42;100.00
7297;BME280;40758;54.038;11.684;2023-07-29T07:39:00;100384.72;;;18.53;100.00
7297;BME280;40758;54.038;11.684;2023-07-29T07:41:27;100379.44;;;18.72;100.00
7297;BME280;40758;54.038;11.684;2023-07-29T07:43:54;100376.22;;;18.99;100.00
7297;BME280;40758;54.038;11.684;2023-07-29T07:46:23;100374.03;;;19.35;100.00
7297;BME280;40758;54.038;11.684;2023-07-29T07:48:50;100378.78;;;19.24;100.00
7297;BME280;40758;54.038;11.684;2023-07-29T07:51:17;100380.19;;;19.22;100.00
7297;BME280;40758;54.038;11.684;2023-07-29T07:53:43;100379.44;;;19.11;100.00
7297;BME280;40758;54.038;11.684;2023-07-29T07:56:10;100375.06;;;19.10;100.00
7297;BME280;40758;54.038;11.684;2023-07-29T07:58:38;100372.88;;;19.07;100.00
7297;BME280;40758;54.038;11.684;2023-07-29T08:01:06;100377.81;;;19.10;100.00
7297;BME280;40758;54.038;11.684;2023-07-29T08:03:34;100382.28;;;18.96;100.00
7297;BME280;40758;54.038;11.684;2023-07-29T08:06:01;100375.16;;;18.95;100.00
7297;BME280;40758;54.038;11.684;2023-07-29T08:08:28;100373.44;;;19.04;100.00
7297;BME280;40758;54.038;11.684;2023-07-29T08:10:56;100378.44;;;19.02;100.00
7297;BME280;40758;54.038;11.684;2023-07-29T08:13:24;100365.56;;;18.92;100.00
7297;BME280;40758;54.038;11.684;2023-07-29T08:15:51;100369.75;;;18.84;100.00
7297;BME280;40758;54.038;11.684;2023-07-29T08:18:19;100381.00;;;18.83;100.00
7297;BME280;40758;54.038;11.684;2023-07-29T08:20:53;100378.81;;;18.85;100.00
7297;BME280;40758;54.038;11.684;2023-07-29T08:23:21;100378.47;;;18.97;100.00
7297;BME280;40758;54.038;11.684;2023-07-29T08:25:56;100379.19;;;19.41;100.00
7297;BME280;40758;54.038;11.684;2023-07-29T08:28:32;100370.41;;;19.98;100.00
7297;BME280;40758;54.038;11.684;2023-07-29T08:30:59;100362.34;;;20.49;100.00
7297;BME280;40758;54.038;11.684;2023-07-29T08:33:26;100365.91;;;21.25;100.00
7297;BME280;40758;54.038;11.684;2023-07-29T08:35:53;100372.31;;;21.99;100.00
7297;BME280;40758;54.038;11.684;2023-07-29T08:38:20;100370.59;;;22.03;100.00
7297;BME280;40758;54.038;11.684;2023-07-29T08:40:57;100364.16;;;22.22;100.00
7297;BME280;40758;54.038;11.684;2023-07-29T08:43:31;100357.66;;;21.85;100.00
7297;BME280;40758;54.038;11.684;2023-07-29T08:45:59;100368.66;;;22.04;100.00
7297;BME280;40758;54.038;11.684;2023-07-29T08:48:33;100371.78;;;21.70;100.00
7297;BME280;40758;54.038;11.684;2023-07-29T08:51:03;100372.63;;;21.19;100.00
7297;BME280;40758;54.038;11.684;2023-07-29T08:53:31;100370.94;;;20.85;100.00
7297;BME280;40758;54.038;11.684;2023-07-29T08:55:59;100371.53;;;20.63;100.00
7297;BME280;40758;54.038;11.684;2023-07-29T08:58:26;100374.34;;;20.58;100.00
7297;BME280;40758;54.038;11.684;2023-07-29T09:00:53;100371.75;;;20.67;100.00
7297;BME280;40758;54.038;11.684;2023-07-29T09:03:21;100367.34;;;21.22;100.00
7297;BME280;40758;54.038;11.684;2023-07-29T09:05:48;100357.38;;;21.87;100.00
7297;BME280;40758;54.038;11.684;2023-07-29T09:08:15;100357.50;;;22.23;100.00
7297;BME280;40758;54.038;11.684;2023-07-29T09:10:41;100355.22;;;22.25;100.00
7297;BME280;40758;54.038;11.684;2023-07-29T09:13:08;100349.50;;;22.35;100.00
7297;BME280;40758;54.038;11.684;2023-07-29T09:15:36;100349.25;;;22.59;100.00
7297;BME280;40758;54.038;11.684;2023-07-29T09:18:17;100342.22;;;23.12;100.00
7297;BME280;40758;54.038;11.684;2023-07-29T09:20:49;100339.06;;;23.27;100.00
7297;BME280;40758;54.038;11.684;2023-07-29T09:23:17;100338.25;;;23.26;100.00
7297;BME280;40758;54.038;11.684;2023-07-29T09:25:46;100340.41;;;23.92;100.00
7297;BME280;40758;54.038;11.684;2023-07-29T09:28:17;100340.75;;;23.36;100.00
7297;BME280;40758;54.038;11.684;2023-07-29T09:30:46;100342.56;;;22.60;100.00
7297;BME280;40758;54.038;11.684;2023-07-29T09:33:13;100338.72;;;22.06;100.00
7297;BME280;40758;54.038;11.684;2023-07-29T09:35:41;100343.13;;;22.07;100.00
7297;BME280;40758;54.038;11.684;2023-07-29T09:38:14;100333.91;;;21.84;100.00
7297;BME280;40758;54.038;11.684;2023-07-29T09:40:42;100337.81;;;21.83;100.00
7297;BME280;40758;54.038;11.684;2023-07-29T09:43:09;100329.09;;;21.76;100.00
7297;BME280;40758;54.038;11.684;2023-07-29T09:45:37;100335.63;;;21.66;100.00
7297;BME280;40758;54.038;11.684;2023-07-29T09:48:05;100334.50;;;21.67;100.00
7297;BME280;40758;54.038;11.684;2023-07-29T09:50:36;100338.72;;;21.65;100.00
7297;BME280;40758;54.038;11.684;2023-07-29T09:53:04;100332.88;;;21.52;100.00
7297;BME280;40758;54.038;11.684;2023-07-29T09:55:33;100327.53;;;21.42;100.00
7297;BME280;40758;54.038;11.684;2023-07-29T09:58:02;100326.41;;;21.43;100.00
7297;BME280;40758;54.038;11.684;2023-07-29T10:00:31;100327.66;;;21.78;100.00
7297;BME280;40758;54.038;11.684;2023-07-29T10:02:59;100327.91;;;22.10;100.00
7297;BME280;40758;54.038;11.684;2023-07-29T10:05:27;100317.75;;;22.33;100.00
7297;BME280;40758;54.038;11.684;2023-07-29T10:07:55;100310.81;;;22.57;100.00
7297;BME280;40758;54.038;11.684;2023-07-29T10:10:23;100316.19;;;22.40;100.00
7297;BME280;40758;54.038;11.684;2023-07-29T10:12:50;100312.06;;;22.51;100.00
7297;BME280;40758;54.038;11.684;2023-07-29T10:15:18;100300.19;;;22.87;100.00
7297;BME280;40758;54.038;11.684;2023-07-29T10:17:53;100306.28;;;22.98;100.00
7297;BME280;40758;54.038;11.684;2023-07-29T10:20:20;100305.78;;;22.96;100.00
7297;BME280;40758;54.038;11.684;2023-07-29T10:22:51;100311.53;;;22.63;100.00
7297;BME280;40758;54.038;11.684;2023-07-29T10:25:23;100314.84;;;22.38;100.00
7297;BME280;40758;54.038;11.684;2023-07-29T10:28:07;100319.28;;;22.25;100.00
7297;BME280;40758;54.038;11.684;2023-07-29T10:30:57;100314.88;;;21.69;100.00
7297;BME280;40758;54.038;11.684;2023-07-29T10:33:35;100322.16;;;21.32;100.00
7297;BME280;40758;54.038;11.684;2023-07-29T10:36:13;100301.56;;;21.11;100.00
7297;BME280;40758;54.038;11.684;2023-07-29T10:38:42;100302.38;;;20.92;100.00
7297;BME280;40758;54.038;11.684;2023-07-29T10:41:18;100308.59;;;20.84;100.00
7297;BME280;40758;54.038;11.684;2023-07-29T10:43:50;100306.53;;;20.76;100.00
7297;BME280;40758;54.038;11.684;2023-07-29T10:46:23;100295.34;;;20.67;100.00
7297;BME280;40758;54.038;11.684;2023-07-29T10:48:55;100296.31;;;20.77;100.00
7297;BME280;40758;54.038;11.684;2023-07-29T10:51:50;100275.78;;;20.64;100.00
7297;BME280;40758;54.038;11.684;2023-07-29T10:54:23;100274.75;;;20.41;100.00
7297;BME280;40758;54.038;11.684;2023-07-29T10:56:54;100278.56;;;19.83;100.00
7297;BME280;40758;54.038;11.684;2023-07-29T10:59:32;100280.03;;;19.18;100.00
7297;BME280;40758;54.038;11.684;2023-07-29T11:02:01;100296.03;;;18.81;100.00
7297;BME280;40758;54.038;11.684;2023-07-29T11:04:31;100298.63;;;18.68;100.00
7297;BME280;40758;54.038;11.684;2023-07-29T11:09:56;100298.16;;;18.50;100.00
7297;BME280;40758;54.038;11.684;2023-07-29T11:12:35;100313.31;;;18.43;100.00
7297;BME280;40758;54.038;11.684;2023-07-29T11:20:13;100315.63;;;18.20;100.00
7297;BME280;40758;54.038;11.684;2023-07-29T11:22:47;100328.31;;;18.11;100.00
7297;BME280;40758;54.038;11.684;2023-07-29T11:25:29;100339.91;;;17.98;100.00
7297;BME280;40758;54.038;11.684;2023-07-29T11:27:59;100339.66;;;17.94;100.00
7297;BME280;40758;54.038;11.684;2023-07-29T11:30:33;100338.84;;;17.89;100.00
7297;BME280;40758;54.038;11.684;2023-07-29T11:33:12;100330.06;;;17.87;100.00
7297;BME280;40758;54.038;11.684;2023-07-29T11:35:55;100310.03;;;17.86;100.00
7297;BME280;40758;54.038;11.684;2023-07-29T11:38:32;100291.59;;;17.92;100.00
7297;BME280;40758;54.038;11.684;2023-07-29T11:41:05;100281.94;;;17.99;100.00
7297;BME280;40758;54.038;11.684;2023-07-29T11:43:36;100294.75;;;18.19;100.00
7297;BME280;40758;54.038;11.684;2023-07-29T11:46:11;100305.16;;;18.27;100.00
7297;BME280;40758;54.038;11.684;2023-07-29T11:48:50;100314.94;;;18.44;100.00
7297;BME280;40758;54.038;11.684;2023-07-29T11:51:27;100307.59;;;18.78;100.00
7297;BME280;40758;54.038;11.684;2023-07-29T11:53:58;100304.59;;;19.14;100.00
7297;BME280;40758;54.038;11.684;2023-07-29T11:56:37;100297.53;;;19.32;100.00
7297;BME280;40758;54.038;11.684;2023-07-29T11:59:14;100309.75;;;19.50;100.00
7297;BME280;40758;54.038;11.684;2023-07-29T12:01:45;100313.25;;;19.84;100.00
7297;BME280;40758;54.038;11.684;2023-07-29T12:04:29;100309.44;;;20.23;100.00
7297;BME280;40758;54.038;11.684;2023-07-29T12:07:00;100310.03;;;20.63;100.00
7297;BME280;40758;54.038;11.684;2023-07-29T12:09:28;100305.78;;;20.70;100.00
7297;BME280;40758;54.038;11.684;2023-07-29T12:12:00;100310.25;;;20.66;100.00
7297;BME280;40758;54.038;11.684;2023-07-29T12:14:29;100316.50;;;20.91;100.00
7297;BME280;40758;54.038;11.684;2023-07-29T12:17:00;100314.72;;;21.14;100.00
7297;BME280;40758;54.038;11.684;2023-07-29T12:19:35;100308.34;;;20.99;100.00
7297;BME280;40758;54.038;11.684;2023-07-29T12:22:05;100303.84;;;21.04;100.00
7297;BME280;40758;54.038;11.684;2023-07-29T12:24:37;100298.53;;;20.93;100.00
7297;BME280;40758;54.038;11.684;2023-07-29T12:27:09;100299.25;;;20.99;100.00
7297;BME280;40758;54.038;11.684;2023-07-29T12:29:43;100301.09;;;21.04;100.00
7297;BME280;40758;54.038;11.684;2023-07-29T12:32:19;100295.91;;;21.16;100.00
7297;BME280;40758;54.038;11.684;2023-07-29T12:34:49;100297.47;;;21.22;100.00
7297;BME280;40758;54.038;11.684;2023-07-29T12:37:16;100299.03;;;21.28;100.00
7297;BME280;40758;54.038;11.684;2023-07-29T12:39:43;100301.72;;;21.33;100.00
7297;BME280;40758;54.038;11.684;2023-07-29T12:42:10;100314.22;;;21.44;100.00
7297;BME280;40758;54.038;11.684;2023-07-29T12:44:38;100310.69;;;21.25;100.00
7297;BME280;40758;54.038;11.684;2023-07-29T12:47:05;100314.66;;;21.19;100.00
7297;BME280;40758;54.038;11.684;2023-07-29T12:49:33;100308.94;;;20.96;100.00
7297;BME280;40758;54.038;11.684;2023-07-29T12:52:00;100314.25;;;20.93;100.00
7297;BME280;40758;54.038;11.684;2023-07-29T12:54:28;100310.59;;;20.97;100.00
7297;BME280;40758;54.038;11.684;2023-07-29T12:56:54;100308.09;;;21.15;100.00
7297;BME280;40758;54.038;11.684;2023-07-29T12:59:21;100311.91;;;21.51;100.00